KMDZ

Details ICAO KMDZ
Name TAYLOR CO
Region United States
Timezone America/Chicago (UTC-5.0)
Plans Departing 1
Arriving 0
Stats Elevation 1,470 ft / 448 m (AMSL)
Location 45.100744° -90.303655°
Runways 2
Magnetic Variation 2.293° W
Sunrise 2018-05-23 10:25:14 UTC / 2018-05-23 05:25:14 Local
Sunset 2018-05-24 01:33:35 UTC / 2018-05-23 20:33:35 Local
Advertisement - Login to hide

Runways

ID Width Length Bearing (true) Bearing (mag) Surface Threshold Offset Overrun Length
09 75 ft / 23 m 4,988 ft / 1,520 m 89.32° 91.61° Asphalt 0 ft / 0 m 0 ft / 0 m
16 75 ft / 23 m 4,102 ft / 1,250 m 155.83° 158.12° Asphalt 0 ft / 0 m 0 ft / 0 m
27 75 ft / 23 m 4,988 ft / 1,520 m 269.33° 271.62° Asphalt 0 ft / 0 m 0 ft / 0 m
34 75 ft / 23 m 4,102 ft / 1,250 m 335.84° 338.13° Asphalt 0 ft / 0 m 0 ft / 0 m

Map

Weather


0- 5 10 15 20 25 30 35+ Temperature / ° C

Clouds and Precipitation
Forecast for 2018-05-24 00:00 UTC. Updated 4 hours ago

Ground ~20,000 ft ~40,000 ft Winds

METAR

KMDZ 240255Z AUTO 16003KT 10SM CLR 18/15 A3015 RMK AO2 T01780149

TAF

Not found

Frequencies

Recorded 119.02 MHz AWOS 3
Unicom 122.80 MHz CTAF/UNICOM
Warning: Do not use this data for real-world aviation or navigation. No guarantee of current accuracy is given.